createdAt,value
2019-03-23T00:00:11.321Z,7.70
2019-03-23T00:02:40.244Z,7.70
2019-03-23T00:05:10.190Z,7.60
2019-03-23T00:07:39.103Z,7.60
2019-03-23T00:10:08.654Z,7.50
2019-03-23T00:12:37.574Z,7.50
2019-03-23T00:15:09.125Z,7.50
2019-03-23T00:17:38.050Z,7.50
2019-03-23T00:20:07.705Z,7.40
2019-03-23T00:22:37.402Z,7.40
2019-03-23T00:25:07.765Z,8.30
2019-03-23T00:27:36.671Z,7.30
2019-03-23T00:30:07.839Z,7.30
2019-03-23T00:32:36.757Z,7.30
2019-03-23T00:35:07.616Z,7.20
2019-03-23T00:37:36.532Z,7.20
2019-03-23T00:40:07.883Z,7.20
2019-03-23T00:42:36.849Z,7.20
2019-03-23T00:45:07.559Z,7.20
2019-03-23T00:47:36.451Z,7.20
2019-03-23T00:50:07.511Z,7.20
2019-03-23T00:52:36.426Z,7.10
2019-03-23T00:55:07.884Z,7.10
2019-03-23T00:57:36.803Z,7.00
2019-03-23T01:00:08.663Z,7.00
2019-03-23T01:02:37.572Z,6.90
2019-03-23T01:05:08.323Z,6.90
2019-03-23T01:07:37.272Z,6.90
2019-03-23T01:10:11.242Z,6.90
2019-03-23T01:12:40.248Z,6.80
2019-03-23T01:15:11.406Z,6.60
2019-03-23T01:17:40.311Z,6.50
2019-03-23T01:20:11.867Z,6.30
2019-03-23T01:22:40.776Z,6.20
2019-03-23T01:25:11.228Z,6.10
2019-03-23T01:27:40.155Z,6.10
2019-03-23T01:30:14.745Z,6.00
2019-03-23T01:32:43.651Z,6.00
2019-03-23T01:35:12.603Z,6.00
2019-03-23T01:37:41.516Z,6.00
2019-03-23T01:40:10.583Z,6.00
2019-03-23T01:42:39.474Z,6.00
2019-03-23T01:45:11.045Z,6.00
2019-03-23T01:47:39.993Z,6.00
2019-03-23T01:50:10.145Z,6.00
2019-03-23T01:52:39.059Z,6.00
2019-03-23T01:55:08.819Z,6.00
2019-03-23T01:57:37.731Z,6.00
2019-03-23T02:00:08.581Z,6.00
2019-03-23T02:02:37.519Z,6.00
2019-03-23T02:05:08.203Z,6.00
2019-03-23T02:07:37.114Z,6.00
2019-03-23T02:10:07.662Z,5.90
2019-03-23T02:12:36.575Z,5.90
2019-03-23T02:15:11.014Z,5.90
2019-03-23T02:17:39.929Z,5.90
2019-03-23T02:20:13.765Z,5.90
2019-03-23T02:22:42.681Z,5.90
2019-03-23T02:25:11.746Z,5.90
2019-03-23T02:27:40.654Z,5.90
2019-03-23T02:30:11.566Z,5.90
2019-03-23T02:32:40.519Z,5.90
2019-03-23T02:35:09.733Z,5.90
2019-03-23T02:37:38.697Z,5.90
2019-03-23T02:40:10.116Z,5.90
2019-03-23T02:42:39.966Z,5.90
2019-03-23T02:45:10.803Z,5.90
2019-03-23T02:47:39.819Z,5.90
2019-03-23T02:50:10.473Z,5.90
2019-03-23T02:52:39.450Z,5.90
2019-03-23T02:55:09.753Z,5.80
2019-03-23T02:57:38.699Z,5.80
2019-03-23T03:00:15.570Z,5.70
2019-03-23T03:02:44.599Z,5.70
2019-03-23T03:05:13.710Z,5.70
2019-03-23T03:07:43.859Z,5.50
2019-03-23T03:10:15.251Z,5.40
2019-03-23T03:12:44.209Z,5.40
2019-03-23T03:15:13.219Z,5.30
2019-03-23T03:17:42.186Z,5.30
2019-03-23T03:20:11.354Z,5.30
2019-03-23T03:22:40.318Z,5.10
2019-03-23T03:25:09.671Z,5.00
2019-03-23T03:27:38.622Z,5.00
2019-03-23T03:30:10.866Z,5.00
2019-03-23T03:32:39.839Z,5.00
2019-03-23T03:35:09.034Z,5.00
2019-03-23T03:37:37.992Z,4.90
2019-03-23T03:40:08.217Z,4.90
2019-03-23T03:42:37.159Z,5.00
2019-03-23T03:45:08.195Z,4.90
2019-03-23T03:47:40.768Z,4.90
2019-03-23T03:50:08.367Z,4.80
2019-03-23T03:52:37.328Z,4.70
2019-03-23T03:55:07.645Z,4.70
2019-03-23T03:57:36.597Z,4.70
2019-03-23T04:00:09.505Z,4.70
2019-03-23T04:02:38.857Z,4.80
2019-03-23T04:05:07.968Z,4.70
2019-03-23T04:07:36.920Z,4.70
2019-03-23T04:10:07.437Z,4.70
2019-03-23T04:12:36.397Z,4.70
2019-03-23T04:15:07.648Z,4.70
2019-03-23T04:17:36.581Z,4.70
2019-03-23T04:20:07.226Z,4.80
2019-03-23T04:22:36.144Z,4.80
2019-03-23T04:25:09.923Z,4.80
2019-03-23T04:27:38.952Z,4.80
2019-03-23T04:30:10.200Z,4.80
2019-03-23T04:32:39.111Z,4.90
2019-03-23T04:35:08.371Z,5.00
2019-03-23T04:37:37.291Z,5.00
2019-03-23T04:40:09.140Z,5.10
2019-03-23T04:42:38.054Z,5.20
2019-03-23T04:45:08.810Z,5.20
2019-03-23T04:47:37.722Z,5.30
2019-03-23T04:50:12.863Z,5.30
2019-03-23T04:52:41.769Z,5.40
2019-03-23T04:55:12.814Z,5.50
2019-03-23T04:57:42.023Z,5.50
2019-03-23T05:00:19.131Z,5.60
2019-03-23T05:02:48.041Z,5.60
2019-03-23T05:05:16.996Z,5.60
2019-03-23T05:07:45.900Z,5.60
2019-03-23T05:10:15.352Z,5.60
2019-03-23T05:12:44.266Z,5.70
2019-03-23T05:15:13.324Z,5.70
2019-03-23T05:17:42.231Z,5.80
2019-03-23T05:20:13.256Z,5.80
2019-03-23T05:22:42.164Z,5.80
2019-03-23T05:25:14.055Z,5.80
2019-03-23T05:27:42.963Z,5.80
2019-03-23T05:30:11.928Z,5.90
2019-03-23T05:32:40.840Z,5.90
2019-03-23T05:35:09.797Z,5.90
2019-03-23T05:37:38.697Z,5.90
2019-03-23T05:40:07.859Z,5.90
2019-03-23T05:42:36.791Z,6.00
2019-03-23T05:45:07.393Z,6.00
2019-03-23T05:47:36.298Z,6.10
2019-03-23T05:50:07.449Z,6.10
2019-03-23T05:52:36.400Z,6.10
2019-03-23T05:55:06.746Z,6.20
2019-03-23T05:57:35.660Z,6.20
2019-03-23T06:00:10.551Z,6.20
2019-03-23T06:02:39.465Z,6.30
2019-03-23T06:05:08.439Z,6.20
2019-03-23T06:07:37.352Z,6.30
2019-03-23T06:10:07.110Z,6.30
2019-03-23T06:12:36.024Z,6.30
2019-03-23T06:15:07.236Z,6.30
2019-03-23T06:17:36.199Z,6.40
2019-03-23T06:20:07.163Z,6.40
2019-03-23T06:22:36.065Z,6.40
2019-03-23T06:25:06.880Z,6.50
2019-03-23T06:27:35.844Z,6.50
2019-03-23T06:30:08.056Z,6.60
2019-03-23T06:32:37.017Z,6.60
2019-03-23T06:35:07.022Z,6.60
2019-03-23T06:37:35.978Z,6.70
2019-03-23T06:40:10.156Z,6.70
2019-03-23T06:42:39.149Z,6.80
2019-03-23T06:45:10.275Z,6.80
2019-03-23T06:47:39.239Z,6.90
2019-03-23T06:50:10.153Z,6.90
2019-03-23T06:52:39.109Z,6.90
2019-03-23T06:55:08.917Z,7.00
2019-03-23T06:57:37.903Z,7.00
2019-03-23T07:00:12.677Z,7.00
2019-03-23T07:02:41.635Z,7.10
2019-03-23T07:05:10.842Z,7.10
2019-03-23T07:07:39.790Z,7.20
2019-03-23T07:10:13.324Z,7.20
2019-03-23T07:12:42.285Z,7.30
2019-03-23T07:15:19.835Z,7.40
2019-03-23T07:17:42.786Z,7.50
2019-03-23T07:20:13.581Z,7.70
2019-03-23T07:22:42.524Z,7.70
2019-03-23T07:25:12.572Z,7.90
2019-03-23T07:27:41.598Z,8.00
2019-03-23T07:30:17.603Z,8.10
2019-03-23T07:32:46.562Z,8.20
2019-03-23T07:35:15.969Z,8.40
2019-03-23T07:37:44.928Z,8.50
2019-03-23T07:40:14.131Z,8.50
2019-03-23T07:42:43.085Z,8.70
2019-03-23T07:45:15.797Z,8.70
2019-03-23T07:47:44.805Z,8.80
2019-03-23T07:50:14.831Z,8.90
2019-03-23T07:52:43.780Z,9.00
2019-03-23T07:55:16.502Z,9.00
2019-03-23T07:57:45.901Z,9.00
2019-03-23T08:00:22.720Z,9.20
2019-03-23T08:02:51.624Z,9.20
2019-03-23T08:05:20.581Z,9.40
2019-03-23T08:07:49.483Z,9.50
2019-03-23T08:10:30.314Z,9.60
2019-03-23T08:12:59.271Z,9.70
2019-03-23T08:15:28.174Z,9.70
2019-03-23T08:17:57.082Z,9.70
2019-03-23T08:20:26.133Z,9.60
2019-03-23T08:22:55.468Z,9.60
2019-03-23T08:25:24.416Z,9.60
2019-03-23T08:27:53.324Z,9.60
2019-03-23T08:30:22.274Z,9.70
2019-03-23T08:32:51.182Z,9.70
2019-03-23T08:35:20.131Z,9.60
2019-03-23T08:37:49.049Z,9.70
2019-03-23T08:40:17.992Z,9.70
2019-03-23T08:42:46.900Z,9.80
2019-03-23T08:45:15.855Z,9.90
2019-03-23T08:47:44.767Z,9.90
2019-03-23T08:50:13.721Z,10.10
2019-03-23T08:52:42.647Z,10.40
2019-03-23T08:55:11.630Z,10.70
2019-03-23T08:57:41.496Z,10.90
2019-03-23T09:00:11.318Z,10.80
2019-03-23T09:02:40.252Z,10.90
2019-03-23T09:05:09.300Z,10.90
2019-03-23T09:07:38.219Z,11.10
2019-03-23T09:10:08.078Z,11.00
2019-03-23T09:12:36.983Z,11.00
2019-03-23T09:15:07.938Z,10.80
2019-03-23T09:17:36.852Z,10.80
2019-03-23T09:20:08.472Z,10.70
2019-03-23T09:22:37.381Z,10.90
2019-03-23T09:25:07.433Z,11.10
2019-03-23T09:27:36.345Z,11.10
2019-03-23T09:30:08.237Z,10.90
2019-03-23T09:32:37.152Z,10.90
2019-03-23T09:35:06.612Z,10.80
2019-03-23T09:37:38.253Z,10.80
2019-03-23T09:40:10.974Z,10.90
2019-03-23T09:42:37.722Z,10.90
2019-03-23T09:45:08.491Z,10.80
2019-03-23T09:47:37.694Z,10.80
2019-03-23T09:50:09.538Z,10.80
2019-03-23T09:52:38.469Z,10.80
2019-03-23T09:55:08.533Z,10.90
2019-03-23T09:57:37.448Z,11.10
2019-03-23T10:00:08.861Z,11.00
2019-03-23T10:02:37.834Z,11.00
2019-03-23T10:05:07.849Z,11.10
2019-03-23T10:07:36.804Z,11.00
2019-03-23T10:10:07.320Z,11.10
2019-03-23T10:12:36.261Z,11.10
2019-03-23T10:15:06.936Z,11.10
2019-03-23T10:17:35.882Z,11.20
2019-03-23T10:20:06.493Z,11.30
2019-03-23T10:22:35.449Z,11.30
2019-03-23T10:25:05.761Z,11.40
2019-03-23T10:27:34.716Z,11.30
2019-03-23T10:30:13.154Z,11.30
2019-03-23T10:32:40.351Z,11.00
2019-03-23T10:35:09.802Z,10.90
2019-03-23T10:37:38.820Z,10.70
2019-03-23T10:40:09.995Z,10.80
2019-03-23T10:42:38.940Z,10.80
2019-03-23T10:45:09.391Z,10.70
2019-03-23T10:47:38.475Z,10.50
2019-03-23T10:50:07.642Z,10.70
2019-03-23T10:52:36.635Z,11.00
2019-03-23T10:55:07.422Z,11.30
2019-03-23T10:57:36.361Z,11.50
2019-03-23T11:00:11.445Z,11.60
2019-03-23T11:02:40.405Z,11.30
2019-03-23T11:05:09.425Z,11.30
2019-03-23T11:07:38.365Z,11.20
2019-03-23T11:10:09.482Z,11.10
2019-03-23T11:12:38.436Z,11.10
2019-03-23T11:15:08.755Z,11.20
2019-03-23T11:17:37.706Z,11.10
2019-03-23T11:20:09.030Z,11.20
2019-03-23T11:22:37.974Z,11.50
2019-03-23T11:25:10.098Z,11.90
2019-03-23T11:27:39.063Z,12.00
2019-03-23T11:30:12.831Z,12.40
2019-03-23T11:32:41.775Z,12.60
2019-03-23T11:35:10.842Z,12.70
2019-03-23T11:37:40.001Z,12.50
2019-03-23T11:40:11.156Z,12.20
2019-03-23T11:42:49.284Z,11.90
2019-03-23T11:45:11.587Z,11.80
2019-03-23T11:47:40.483Z,12.00
2019-03-23T11:50:10.186Z,12.20
2019-03-23T11:52:39.142Z,12.40
2019-03-23T11:55:08.396Z,12.30
2019-03-23T11:57:37.314Z,12.40
2019-03-23T12:00:09.205Z,12.20
2019-03-23T12:02:38.122Z,12.00
2019-03-23T12:05:08.574Z,12.10
2019-03-23T12:07:37.482Z,12.20
2019-03-23T12:10:11.491Z,12.30
2019-03-23T12:12:40.518Z,12.30
2019-03-23T12:15:11.987Z,12.20
2019-03-23T12:17:40.900Z,12.10
2019-03-23T12:20:10.781Z,12.30
2019-03-23T12:22:39.695Z,12.40
2019-03-23T12:25:09.344Z,12.60
2019-03-23T12:27:38.258Z,12.60
2019-03-23T12:30:12.953Z,12.70
2019-03-23T12:32:41.864Z,13.10
2019-03-23T12:35:10.826Z,13.00
2019-03-23T12:37:39.713Z,13.30
2019-03-23T12:40:10.143Z,13.50
2019-03-23T12:42:39.062Z,13.70
2019-03-23T12:45:09.216Z,13.80
2019-03-23T12:47:38.123Z,13.90
2019-03-23T12:50:08.974Z,14.00
2019-03-23T12:52:37.921Z,13.80
2019-03-23T12:55:07.875Z,13.70
2019-03-23T12:57:36.791Z,13.80
2019-03-23T13:00:11.418Z,13.80
2019-03-23T13:02:40.384Z,13.70
2019-03-23T13:05:09.500Z,13.60
2019-03-23T13:07:38.419Z,13.80
2019-03-23T13:10:10.140Z,13.70
2019-03-23T13:12:39.046Z,13.50
2019-03-23T13:15:10.972Z,13.30
2019-03-23T13:17:39.884Z,13.30
2019-03-23T13:20:09.916Z,13.30
2019-03-23T13:22:38.866Z,13.10
2019-03-23T13:25:11.016Z,13.00
2019-03-23T13:27:42.290Z,12.90
2019-03-23T13:30:17.377Z,12.90
2019-03-23T13:32:46.283Z,12.70
2019-03-23T13:35:15.187Z,12.60
2019-03-23T13:37:44.148Z,12.60
2019-03-23T13:40:14.054Z,12.30
2019-03-23T13:42:43.006Z,12.10
2019-03-23T13:45:12.620Z,11.80
2019-03-23T13:47:41.568Z,11.60
2019-03-23T13:50:11.396Z,11.60
2019-03-23T13:52:40.342Z,11.50
2019-03-23T13:55:13.071Z,11.50
2019-03-23T13:57:42.304Z,11.60
2019-03-23T14:00:11.409Z,11.80
2019-03-23T14:02:40.387Z,11.80
2019-03-23T14:05:16.089Z,11.80
2019-03-23T14:07:40.057Z,11.80
2019-03-23T14:10:09.536Z,11.60
2019-03-23T14:12:38.582Z,11.60
2019-03-23T14:15:07.997Z,11.50
2019-03-23T14:17:37.001Z,11.40
2019-03-23T14:20:06.855Z,11.30
2019-03-23T14:22:35.962Z,11.20
2019-03-23T14:25:06.805Z,11.00
2019-03-23T14:27:35.813Z,11.20
2019-03-23T14:30:07.015Z,11.20
2019-03-23T14:32:36.012Z,11.10
2019-03-23T14:35:06.128Z,11.20
2019-03-23T14:37:35.103Z,11.00
2019-03-23T14:40:05.387Z,11.00
2019-03-23T14:42:35.714Z,11.10
2019-03-23T14:45:06.630Z,11.20
2019-03-23T14:47:35.592Z,11.20
2019-03-23T14:50:06.122Z,11.00
2019-03-23T14:52:35.176Z,10.80
2019-03-23T14:55:04.793Z,10.80
2019-03-23T14:57:34.198Z,10.70
2019-03-23T15:00:03.218Z,11.00
2019-03-23T15:02:32.167Z,11.20
2019-03-23T15:05:01.114Z,11.10
2019-03-23T15:07:30.097Z,11.00
2019-03-23T15:09:59.029Z,10.80
2019-03-23T15:12:28.175Z,10.80
2019-03-23T15:14:57.088Z,10.80
2019-03-23T15:17:26.027Z,10.70
2019-03-23T15:19:54.977Z,10.80
2019-03-23T15:22:23.940Z,10.90
2019-03-23T15:24:52.899Z,10.90
2019-03-23T15:27:21.797Z,10.70
2019-03-23T15:29:50.746Z,10.40
2019-03-23T15:32:19.675Z,10.40
2019-03-23T15:34:48.627Z,10.40
2019-03-23T15:37:17.534Z,10.40
2019-03-23T15:39:46.506Z,10.40
2019-03-23T15:42:24.279Z,10.30
2019-03-23T15:44:46.873Z,10.30
2019-03-23T15:47:15.781Z,10.30
2019-03-23T15:49:45.574Z,10.20
2019-03-23T15:52:14.470Z,10.10
2019-03-23T15:54:43.723Z,10.00
2019-03-23T15:57:12.641Z,9.70
2019-03-23T15:59:43.922Z,9.60
2019-03-23T16:02:12.811Z,9.50
2019-03-23T16:04:41.753Z,9.40
2019-03-23T16:07:11.630Z,9.40
2019-03-23T16:09:40.583Z,9.30
2019-03-23T16:12:10.439Z,9.30
2019-03-23T16:14:39.385Z,9.10
2019-03-23T16:17:08.292Z,9.00
2019-03-23T16:19:37.233Z,9.00
2019-03-23T16:22:07.079Z,9.00
2019-03-23T16:24:36.024Z,8.80
2019-03-23T16:27:04.930Z,8.70
2019-03-23T16:29:33.884Z,8.70
2019-03-23T16:32:02.784Z,8.60
2019-03-23T16:34:32.153Z,8.60
2019-03-23T16:37:01.075Z,8.50
2019-03-23T16:39:29.975Z,8.50
2019-03-23T16:41:58.924Z,8.30
2019-03-23T16:44:27.824Z,8.30
2019-03-23T16:46:56.766Z,8.20
2019-03-23T16:49:25.676Z,8.20
2019-03-23T16:51:54.729Z,8.10
2019-03-23T16:54:23.715Z,8.00
2019-03-23T16:56:52.647Z,7.90
2019-03-23T16:59:21.696Z,7.90
2019-03-23T17:01:50.660Z,7.80
2019-03-23T17:04:19.590Z,7.70
2019-03-23T17:06:48.554Z,7.70
2019-03-23T17:09:17.476Z,7.70
2019-03-23T17:11:46.410Z,7.60
2019-03-23T17:14:15.326Z,7.50
2019-03-23T17:16:44.324Z,7.50
2019-03-23T17:19:13.485Z,7.40
2019-03-23T17:21:42.659Z,7.30
2019-03-23T17:24:11.594Z,7.30
2019-03-23T17:26:40.649Z,7.30
2019-03-23T17:29:10.218Z,7.20
2019-03-23T17:31:39.198Z,7.10
2019-03-23T17:34:08.104Z,7.00
2019-03-23T17:36:37.158Z,6.90
2019-03-23T17:39:06.871Z,6.90
2019-03-23T17:41:35.859Z,6.90
2019-03-23T17:44:04.795Z,6.80
2019-03-23T17:46:33.750Z,6.80
2019-03-23T17:49:02.698Z,6.80
2019-03-23T17:51:31.659Z,6.70
2019-03-23T17:54:00.571Z,6.60
2019-03-23T17:56:29.575Z,6.50
2019-03-23T17:58:58.615Z,6.50
2019-03-23T18:01:27.578Z,6.50
2019-03-23T18:03:56.550Z,6.40
2019-03-23T18:06:25.459Z,6.40
2019-03-23T18:08:54.485Z,6.30
2019-03-23T18:11:23.414Z,6.20
2019-03-23T18:13:52.428Z,6.20
2019-03-23T18:16:21.369Z,6.10
2019-03-23T18:18:50.434Z,6.20
2019-03-23T18:21:19.363Z,6.20
2019-03-23T18:23:48.335Z,6.10
2019-03-23T18:26:17.243Z,6.10
2019-03-23T18:28:46.212Z,6.10
2019-03-23T18:31:15.128Z,6.00
2019-03-23T18:33:44.071Z,6.00
2019-03-23T18:36:12.987Z,5.90
2019-03-23T18:38:41.921Z,5.80
2019-03-23T18:41:10.827Z,5.80
2019-03-23T18:43:39.778Z,5.70
2019-03-23T18:46:08.683Z,5.70
2019-03-23T18:48:37.639Z,5.80
2019-03-23T18:51:06.535Z,5.70
2019-03-23T18:53:35.486Z,5.70
2019-03-23T18:56:04.391Z,5.70
2019-03-23T18:58:33.345Z,5.70
2019-03-23T19:01:02.319Z,5.70
2019-03-23T19:03:31.305Z,5.70
2019-03-23T19:06:00.270Z,5.60
2019-03-23T19:08:29.253Z,5.60
2019-03-23T19:10:58.186Z,5.60
2019-03-23T19:13:37.313Z,5.60
2019-03-23T19:15:57.843Z,5.60
2019-03-23T19:18:27.603Z,5.50
2019-03-23T19:20:56.840Z,5.50
2019-03-23T19:23:25.758Z,5.40
2019-03-23T19:25:54.730Z,5.40
2019-03-23T19:28:23.648Z,5.30
2019-03-23T19:30:52.621Z,5.30
2019-03-23T19:33:21.582Z,5.30
2019-03-23T19:35:50.627Z,5.20
2019-03-23T19:38:19.534Z,5.20
2019-03-23T19:40:48.553Z,5.20
2019-03-23T19:43:17.458Z,5.20
2019-03-23T19:45:46.483Z,5.20
2019-03-23T19:48:15.494Z,5.10
2019-03-23T19:50:44.500Z,5.20
2019-03-23T19:53:13.442Z,5.20
2019-03-23T19:55:42.554Z,5.20
2019-03-23T19:58:11.564Z,5.30
2019-03-23T20:00:40.619Z,5.30
2019-03-23T20:03:09.540Z,5.20
2019-03-23T20:05:38.515Z,5.20
2019-03-23T20:08:07.448Z,5.10
2019-03-23T20:10:36.438Z,5.10
2019-03-23T20:13:05.457Z,5.10
2019-03-23T20:15:34.439Z,5.10
2019-03-23T20:18:03.348Z,5.10
2019-03-23T20:20:32.380Z,5.00
2019-03-23T20:23:01.403Z,5.00
2019-03-23T20:25:30.504Z,4.90
2019-03-23T20:27:59.475Z,4.80
2019-03-23T20:30:28.478Z,4.70
2019-03-23T20:32:57.423Z,4.60
2019-03-23T20:35:26.384Z,4.60
2019-03-23T20:37:55.364Z,4.60
2019-03-23T20:40:24.335Z,4.50
2019-03-23T20:42:53.402Z,4.40
2019-03-23T20:45:30.008Z,4.40
2019-03-23T20:47:59.142Z,4.30
2019-03-23T20:50:28.153Z,4.30
2019-03-23T20:52:58.994Z,4.30
2019-03-23T20:55:30.094Z,4.30
2019-03-23T20:57:59.028Z,4.30
2019-03-23T21:00:28.027Z,4.20
2019-03-23T21:02:57.147Z,4.20
2019-03-23T21:05:33.917Z,4.20
2019-03-23T21:07:56.674Z,4.10
2019-03-23T21:10:27.411Z,4.10
2019-03-23T21:12:56.172Z,4.10
2019-03-23T21:15:26.233Z,4.10
2019-03-23T21:17:56.933Z,4.00
2019-03-23T21:20:26.651Z,4.00
2019-03-23T21:22:58.361Z,3.90
2019-03-23T21:25:27.263Z,3.90
2019-03-23T21:27:56.205Z,3.80
2019-03-23T21:30:25.116Z,3.80
2019-03-23T21:32:54.249Z,3.70
2019-03-23T21:35:23.263Z,3.70
2019-03-23T21:37:52.243Z,3.70
2019-03-23T21:40:21.224Z,3.70
2019-03-23T21:42:50.179Z,3.70
2019-03-23T21:45:19.111Z,3.60
2019-03-23T21:47:48.652Z,3.50
2019-03-23T21:50:17.557Z,3.40
2019-03-23T21:52:46.510Z,3.40
2019-03-23T21:55:15.730Z,3.30
2019-03-23T21:57:44.686Z,3.30
2019-03-23T22:00:15.071Z,3.20
2019-03-23T22:02:44.310Z,3.30
2019-03-23T22:05:13.227Z,3.30
2019-03-23T22:07:42.879Z,3.40
2019-03-23T22:10:12.011Z,3.40
2019-03-23T22:12:40.920Z,3.40
2019-03-23T22:15:10.082Z,3.40
2019-03-23T22:17:38.999Z,3.30
2019-03-23T22:20:08.829Z,3.30
2019-03-23T22:22:37.734Z,3.30
2019-03-23T22:25:07.579Z,3.30
2019-03-23T22:27:37.490Z,3.30
2019-03-23T22:30:11.774Z,3.30
2019-03-23T22:32:40.683Z,3.30
2019-03-23T22:35:09.830Z,3.20
2019-03-23T22:37:38.963Z,3.30
2019-03-23T22:40:09.504Z,3.30
2019-03-23T22:42:38.428Z,3.30
2019-03-23T22:45:08.690Z,3.30
2019-03-23T22:47:37.590Z,3.20
2019-03-23T22:50:08.503Z,3.20
2019-03-23T22:52:37.433Z,3.20
2019-03-23T22:55:07.211Z,3.20
2019-03-23T22:57:36.203Z,3.30
2019-03-23T23:00:12.194Z,3.60
2019-03-23T23:02:41.121Z,3.70
2019-03-23T23:05:10.172Z,3.70
2019-03-23T23:07:39.091Z,3.60
2019-03-23T23:10:09.142Z,3.60
2019-03-23T23:12:38.041Z,3.50
2019-03-23T23:15:07.699Z,3.40
2019-03-23T23:17:36.623Z,3.50
2019-03-23T23:20:07.876Z,3.40
2019-03-23T23:22:36.774Z,3.40
2019-03-23T23:25:09.427Z,3.30
2019-03-23T23:27:38.336Z,4.10
2019-03-23T23:30:09.482Z,3.20
2019-03-23T23:32:38.387Z,3.10
2019-03-23T23:35:09.548Z,3.10
2019-03-23T23:37:38.454Z,3.00
2019-03-23T23:40:08.136Z,2.90
2019-03-23T23:42:37.369Z,1.70
2019-03-23T23:45:15.242Z,2.80
2019-03-23T23:47:38.672Z,2.90
2019-03-23T23:50:08.427Z,2.90
2019-03-23T23:52:37.342Z,2.90
2019-03-23T23:55:07.088Z,2.90
2019-03-23T23:57:36.016Z,2.90
